createdAt,value
2023-01-29T00:02:13.910Z,20.85
2023-01-29T00:04:41.267Z,20.20
2023-01-29T00:07:08.776Z,19.73
2023-01-29T00:09:36.105Z,22.65
2023-01-29T00:12:03.709Z,21.05
2023-01-29T00:14:31.050Z,20.73
2023-01-29T00:16:58.383Z,19.85
2023-01-29T00:19:25.640Z,18.40
2023-01-29T00:21:53.183Z,20.05
2023-01-29T00:24:20.684Z,22.25
2023-01-29T00:26:51.081Z,22.10
2023-01-29T00:29:18.631Z,21.15
2023-01-29T00:31:46.217Z,23.33
2023-01-29T00:34:13.596Z,21.77
2023-01-29T00:36:40.958Z,22.58
2023-01-29T00:39:10.921Z,23.40
2023-01-29T00:41:57.724Z,21.60
2023-01-29T00:44:43.764Z,21.13
2023-01-29T00:47:43.373Z,23.27
2023-01-29T00:50:11.493Z,22.30
2023-01-29T00:52:40.894Z,24.48
2023-01-29T00:55:08.786Z,21.50
2023-01-29T00:57:36.678Z,20.58
2023-01-29T01:00:06.126Z,20.63
2023-01-29T01:02:52.468Z,22.00
2023-01-29T01:05:19.961Z,21.27
2023-01-29T01:07:58.051Z,21.10
2023-01-29T01:10:32.587Z,22.73
2023-01-29T01:13:04.598Z,21.95
2023-01-29T01:15:33.348Z,23.95
2023-01-29T01:18:01.578Z,20.35
2023-01-29T01:20:29.871Z,23.38
2023-01-29T01:22:57.404Z,22.27
2023-01-29T01:25:25.884Z,20.48
2023-01-29T01:27:54.071Z,21.50
2023-01-29T01:30:21.482Z,24.35
2023-01-29T01:32:48.817Z,21.38
2023-01-29T01:35:16.622Z,21.38
2023-01-29T01:37:43.917Z,20.65
2023-01-29T01:40:18.574Z,17.75
2023-01-29T01:42:49.025Z,19.13
2023-01-29T01:45:27.512Z,19.75
2023-01-29T01:48:21.522Z,21.15
2023-01-29T01:50:51.464Z,21.25
2023-01-29T01:53:24.960Z,19.67
2023-01-29T01:55:56.643Z,20.55
2023-01-29T01:58:27.461Z,20.95
2023-01-29T02:00:55.459Z,21.42
2023-01-29T02:03:42.239Z,22.45
2023-01-29T02:06:29.658Z,21.60
2023-01-29T02:09:21.825Z,21.05
2023-01-29T02:11:49.080Z,21.30
2023-01-29T02:14:16.750Z,20.95
2023-01-29T02:16:44.360Z,22.33
2023-01-29T02:19:15.904Z,22.05
2023-01-29T02:21:49.389Z,20.33
2023-01-29T02:24:16.722Z,20.25
2023-01-29T02:26:50.292Z,21.17
2023-01-29T02:29:30.518Z,19.65
2023-01-29T02:31:58.041Z,21.70
2023-01-29T02:34:58.352Z,21.13
2023-01-29T02:37:31.824Z,20.75
2023-01-29T02:40:21.019Z,21.60
2023-01-29T02:42:53.376Z,22.95
2023-01-29T02:45:25.761Z,20.15
2023-01-29T02:47:55.337Z,21.77
2023-01-29T02:50:27.293Z,19.98
2023-01-29T02:53:02.602Z,21.63
2023-01-29T02:55:39.142Z,19.80
2023-01-29T02:58:12.348Z,22.55
2023-01-29T03:00:42.397Z,21.65
2023-01-29T03:03:13.709Z,20.17
2023-01-29T03:05:45.854Z,22.15
2023-01-29T03:08:17.321Z,22.88
2023-01-29T03:10:48.915Z,20.02
2023-01-29T03:13:23.709Z,20.33
2023-01-29T03:16:01.492Z,21.65
2023-01-29T03:18:50.899Z,21.35
2023-01-29T03:21:39.489Z,21.02
2023-01-29T03:24:28.378Z,21.08
2023-01-29T03:27:15.772Z,20.85
2023-01-29T03:30:05.586Z,24.58
2023-01-29T03:32:49.288Z,22.80
2023-01-29T03:35:21.779Z,20.55
2023-01-29T03:37:49.616Z,23.27
2023-01-29T03:40:17.264Z,23.60
2023-01-29T03:42:50.672Z,22.13
2023-01-29T03:45:18.008Z,23.85
2023-01-29T03:47:48.722Z,24.05
2023-01-29T03:50:19.249Z,24.17
2023-01-29T03:52:49.683Z,23.95
2023-01-29T03:55:36.467Z,26.10
2023-01-29T03:58:07.018Z,20.60
2023-01-29T04:00:42.488Z,25.25
2023-01-29T04:03:22.595Z,26.55
2023-01-29T04:05:53.177Z,27.10
2023-01-29T04:10:55.493Z,23.33
2023-01-29T04:13:24.858Z,23.33
2023-01-29T04:15:55.652Z,23.90
2023-01-29T04:18:38.677Z,25.33
2023-01-29T04:21:08.569Z,26.48
2023-01-29T04:23:36.743Z,25.48
2023-01-29T04:26:19.087Z,26.23
2023-01-29T04:29:05.326Z,25.98
2023-01-29T04:31:41.531Z,24.25
2023-01-29T04:34:27.168Z,25.70
2023-01-29T04:37:24.030Z,27.77
2023-01-29T04:40:02.493Z,25.15
2023-01-29T04:42:49.714Z,26.35
2023-01-29T04:45:21.028Z,28.00
2023-01-29T04:47:52.076Z,24.30
2023-01-29T04:50:22.378Z,24.33
2023-01-29T04:52:52.755Z,22.95
2023-01-29T04:55:32.393Z,24.95
2023-01-29T04:58:10.310Z,23.67
2023-01-29T05:00:45.058Z,25.60
2023-01-29T05:03:14.252Z,26.88
2023-01-29T05:05:44.079Z,27.10
2023-01-29T05:08:13.221Z,25.17
2023-01-29T05:10:40.974Z,23.92
2023-01-29T05:13:10.462Z,27.50
2023-01-29T05:15:46.173Z,25.33
2023-01-29T05:18:13.484Z,26.23
2023-01-29T05:20:42.337Z,29.58
2023-01-29T05:23:10.884Z,26.90
2023-01-29T05:25:38.413Z,26.73
2023-01-29T05:28:14.052Z,25.10
2023-01-29T05:30:41.507Z,26.77
2023-01-29T05:33:19.780Z,27.63
2023-01-29T05:35:47.384Z,27.23
2023-01-29T05:38:15.457Z,28.10
2023-01-29T05:40:42.974Z,26.83
2023-01-29T05:43:17.314Z,25.77
2023-01-29T05:45:44.802Z,26.90
2023-01-29T05:48:12.227Z,27.48
2023-01-29T05:50:39.587Z,28.33
2023-01-29T05:53:06.965Z,26.83
2023-01-29T05:55:34.267Z,25.48
2023-01-29T05:58:01.711Z,30.20
2023-01-29T06:00:29.128Z,26.20
2023-01-29T06:02:56.829Z,26.92
2023-01-29T06:05:24.168Z,27.67
2023-01-29T06:07:51.452Z,25.60
2023-01-29T06:10:19.380Z,26.58
2023-01-29T06:12:46.856Z,26.35
2023-01-29T06:15:18.117Z,28.17
2023-01-29T06:17:45.383Z,27.40
2023-01-29T06:20:12.841Z,27.02
2023-01-29T06:22:40.088Z,27.40
2023-01-29T06:25:07.889Z,27.58
2023-01-29T06:27:35.127Z,27.00
2023-01-29T06:30:02.585Z,29.10
2023-01-29T06:32:29.907Z,24.60
2023-01-29T06:34:57.300Z,27.15
2023-01-29T06:37:24.604Z,25.80
2023-01-29T06:39:51.968Z,26.73
2023-01-29T06:42:20.553Z,27.33
2023-01-29T06:44:47.728Z,29.50
2023-01-29T06:47:15.037Z,26.00
2023-01-29T06:49:42.350Z,24.77
2023-01-29T06:52:09.700Z,26.85
2023-01-29T06:54:36.940Z,23.38
2023-01-29T06:57:04.343Z,27.77
2023-01-29T06:59:31.722Z,27.35
2023-01-29T07:01:59.487Z,26.70
2023-01-29T07:04:26.770Z,27.10
2023-01-29T07:06:54.220Z,24.35
2023-01-29T07:09:21.500Z,27.08
2023-01-29T07:11:48.787Z,25.42
2023-01-29T07:14:16.149Z,27.52
2023-01-29T07:16:43.500Z,26.73
2023-01-29T07:19:11.022Z,28.60
2023-01-29T07:21:38.367Z,24.90
2023-01-29T07:24:05.782Z,24.63
2023-01-29T07:26:33.086Z,24.67
2023-01-29T07:29:00.399Z,26.17
2023-01-29T07:31:27.807Z,25.63
2023-01-29T07:33:55.944Z,23.85
2023-01-29T07:36:24.177Z,26.33
2023-01-29T07:38:52.168Z,25.25
2023-01-29T07:41:19.600Z,24.92
2023-01-29T07:43:47.982Z,26.88
2023-01-29T07:46:15.472Z,23.33
2023-01-29T07:48:42.737Z,23.73
2023-01-29T07:51:10.125Z,27.98
2023-01-29T07:53:37.591Z,26.05
2023-01-29T07:56:04.971Z,25.85
2023-01-29T07:58:35.578Z,25.25
2023-01-29T08:01:07.942Z,26.55
2023-01-29T08:03:35.963Z,22.55
2023-01-29T08:06:04.132Z,27.15
2023-01-29T08:08:31.835Z,22.40
2023-01-29T08:11:01.340Z,25.75
2023-01-29T08:13:28.880Z,24.50
2023-01-29T08:15:59.581Z,23.95
2023-01-29T08:18:26.908Z,22.67
2023-01-29T08:20:56.920Z,23.60
2023-01-29T08:23:24.336Z,23.65
2023-01-29T08:25:51.584Z,25.65
2023-01-29T08:28:18.812Z,24.08
2023-01-29T08:30:46.160Z,22.17
2023-01-29T08:33:13.491Z,20.70
2023-01-29T08:35:41.348Z,21.92
2023-01-29T08:38:10.647Z,23.60
2023-01-29T08:43:09.436Z,22.35
2023-01-29T08:45:38.621Z,22.63
2023-01-29T08:48:06.329Z,23.85
2023-01-29T08:50:35.003Z,22.45
2023-01-29T08:53:03.991Z,26.55
2023-01-29T08:55:31.342Z,22.63
2023-01-29T08:57:58.871Z,21.30
2023-01-29T09:00:26.175Z,23.58
2023-01-29T09:02:53.521Z,22.83
2023-01-29T09:05:20.811Z,23.63
2023-01-29T09:07:48.133Z,25.83
2023-01-29T09:10:16.409Z,21.10
2023-01-29T09:12:43.716Z,23.58
2023-01-29T09:15:11.227Z,23.60
2023-01-29T09:17:38.509Z,22.75
2023-01-29T09:20:08.899Z,21.98
2023-01-29T09:22:36.457Z,22.10
2023-01-29T09:25:04.408Z,23.02
2023-01-29T09:27:31.664Z,21.02
2023-01-29T09:29:58.884Z,21.23
2023-01-29T09:32:52.138Z,21.38
2023-01-29T09:35:13.519Z,25.30
2023-01-29T09:37:40.881Z,23.15
2023-01-29T09:40:08.973Z,25.95
2023-01-29T09:42:45.381Z,23.08
2023-01-29T09:45:31.586Z,23.48
2023-01-29T09:48:05.748Z,24.85
2023-01-29T09:50:40.163Z,22.63
2023-01-29T09:53:16.616Z,22.17
2023-01-29T09:55:47.382Z,24.60
2023-01-29T09:58:28.747Z,22.30
2023-01-29T10:00:59.080Z,24.15
2023-01-29T10:03:29.581Z,23.85
2023-01-29T10:06:16.006Z,25.45
2023-01-29T10:09:01.576Z,24.90
2023-01-29T10:11:47.860Z,27.58
2023-01-29T10:14:50.733Z,25.58
2023-01-29T10:17:20.863Z,24.38
2023-01-29T10:19:51.286Z,22.50
2023-01-29T10:22:21.694Z,25.20
2023-01-29T10:24:52.242Z,26.83
2023-01-29T10:27:20.169Z,24.23
2023-01-29T10:29:49.669Z,24.45
2023-01-29T10:32:21.773Z,24.52
2023-01-29T10:34:52.137Z,25.35
2023-01-29T10:37:24.388Z,22.83
2023-01-29T10:39:51.992Z,23.23
2023-01-29T10:42:24.794Z,23.30
2023-01-29T10:44:55.294Z,24.92
2023-01-29T10:47:40.545Z,25.50
2023-01-29T10:50:11.038Z,26.75
2023-01-29T10:52:58.085Z,25.60
2023-01-29T10:55:25.597Z,26.92
2023-01-29T10:58:08.653Z,25.98
2023-01-29T11:00:37.792Z,27.60
2023-01-29T11:03:27.136Z,24.10
2023-01-29T11:06:14.349Z,30.60
2023-01-29T11:08:50.436Z,24.80
2023-01-29T11:13:54.456Z,24.13
2023-01-29T11:16:24.697Z,29.65
2023-01-29T11:18:56.843Z,26.52
2023-01-29T11:21:25.519Z,27.05
2023-01-29T11:24:17.468Z,27.48
2023-01-29T11:26:46.594Z,27.65
2023-01-29T11:29:33.549Z,29.60
2023-01-29T11:32:01.903Z,30.50
2023-01-29T11:34:31.131Z,30.63
2023-01-29T11:36:59.690Z,27.55
2023-01-29T11:39:28.015Z,27.35
2023-01-29T11:42:04.052Z,29.17
2023-01-29T11:44:31.454Z,28.05
2023-01-29T11:47:07.976Z,30.58
2023-01-29T11:49:36.140Z,31.58
2023-01-29T11:52:05.040Z,31.92
2023-01-29T11:54:35.765Z,31.50
2023-01-29T11:57:03.667Z,30.45
2023-01-29T11:59:34.146Z,27.80
2023-01-29T12:02:06.583Z,30.13
2023-01-29T12:04:34.006Z,32.10
2023-01-29T12:07:01.434Z,28.38
2023-01-29T12:09:30.323Z,28.55
2023-01-29T12:12:17.110Z,29.30
2023-01-29T12:14:47.537Z,30.27
2023-01-29T12:17:19.622Z,28.95
2023-01-29T12:19:50.005Z,30.52
2023-01-29T12:22:26.587Z,31.02
2023-01-29T12:24:57.886Z,34.35
2023-01-29T12:27:44.083Z,29.75
2023-01-29T12:30:14.817Z,31.17
2023-01-29T12:32:50.443Z,28.73
2023-01-29T12:35:23.861Z,29.80
2023-01-29T12:38:10.285Z,30.35
2023-01-29T12:41:00.925Z,33.13
2023-01-29T12:43:31.257Z,30.50
2023-01-29T12:46:00.081Z,33.28
2023-01-29T12:48:35.414Z,32.53
2023-01-29T12:51:08.649Z,29.42
2023-01-29T12:53:39.540Z,29.50
2023-01-29T12:56:10.401Z,30.63
2023-01-29T12:58:42.550Z,33.30
2023-01-29T13:01:17.389Z,29.67
2023-01-29T13:03:52.332Z,32.35
2023-01-29T13:06:43.077Z,30.55
2023-01-29T13:09:15.637Z,32.08
2023-01-29T13:11:53.316Z,30.15
2023-01-29T13:14:26.217Z,31.23
2023-01-29T13:16:55.236Z,35.92
2023-01-29T13:19:32.276Z,32.13
2023-01-29T13:22:01.503Z,30.27
2023-01-29T13:24:34.473Z,30.02
2023-01-29T13:27:01.766Z,33.85
2023-01-29T13:29:31.130Z,32.70
2023-01-29T13:32:02.640Z,30.55
2023-01-29T13:34:33.112Z,32.03
2023-01-29T13:37:02.372Z,33.78
2023-01-29T13:39:31.142Z,31.52
2023-01-29T13:41:59.521Z,36.75
2023-01-29T13:44:26.903Z,30.30
2023-01-29T13:46:58.814Z,33.72
2023-01-29T13:49:27.955Z,30.92
2023-01-29T13:51:55.613Z,31.42
2023-01-29T13:54:25.080Z,29.38
2023-01-29T13:56:55.409Z,30.52
2023-01-29T13:59:24.141Z,31.42
2023-01-29T14:01:51.533Z,29.25
2023-01-29T14:04:29.101Z,29.58
2023-01-29T14:06:57.743Z,32.85
2023-01-29T14:09:37.333Z,30.10
2023-01-29T14:12:05.275Z,34.50
2023-01-29T14:14:58.969Z,28.85
2023-01-29T14:17:27.682Z,27.55
2023-01-29T14:20:03.251Z,28.90
2023-01-29T14:22:32.623Z,26.50
2023-01-29T14:25:03.995Z,31.67
2023-01-29T14:27:31.980Z,27.88
2023-01-29T14:30:18.254Z,29.92
2023-01-29T14:32:49.663Z,28.63
2023-01-29T14:35:21.267Z,29.25
2023-01-29T14:37:50.448Z,26.92
2023-01-29T14:40:21.105Z,32.88
2023-01-29T14:43:00.927Z,29.83
2023-01-29T14:45:32.424Z,27.35
2023-01-29T14:48:18.182Z,26.15
2023-01-29T14:50:45.420Z,27.92
2023-01-29T14:53:15.465Z,27.38
2023-01-29T14:55:42.763Z,27.70
2023-01-29T14:58:33.138Z,27.77
2023-01-29T15:01:00.860Z,29.25
2023-01-29T15:03:43.836Z,29.50
2023-01-29T15:06:15.770Z,29.95
2023-01-29T15:08:46.607Z,25.55
2023-01-29T15:11:34.778Z,25.63
2023-01-29T15:14:02.396Z,25.85
2023-01-29T15:16:59.116Z,28.33
2023-01-29T15:19:36.672Z,26.63
2023-01-29T15:22:14.687Z,25.15
2023-01-29T15:24:43.247Z,28.70
2023-01-29T15:27:15.941Z,26.42
2023-01-29T15:29:45.238Z,29.67
2023-01-29T15:32:17.627Z,26.73
2023-01-29T15:34:45.068Z,27.75
2023-01-29T15:37:31.329Z,28.10
2023-01-29T15:39:59.575Z,27.20
2023-01-29T15:42:28.073Z,30.88
2023-01-29T15:44:58.181Z,29.58
2023-01-29T15:47:32.306Z,27.23
2023-01-29T15:50:00.893Z,26.05
2023-01-29T15:52:33.027Z,27.27
2023-01-29T15:55:03.872Z,26.75
2023-01-29T15:57:38.405Z,24.98
2023-01-29T16:00:06.268Z,30.08
2023-01-29T16:02:42.581Z,26.75
2023-01-29T16:05:20.190Z,24.27
2023-01-29T16:07:47.977Z,27.67
2023-01-29T16:10:17.377Z,26.35
2023-01-29T16:12:47.503Z,29.85
2023-01-29T16:15:19.156Z,22.45
2023-01-29T16:17:46.952Z,26.25
2023-01-29T16:20:31.796Z,23.63
2023-01-29T16:22:59.486Z,21.23
2023-01-29T16:25:26.872Z,27.60
2023-01-29T16:27:54.491Z,24.20
2023-01-29T16:30:26.549Z,27.80
2023-01-29T16:32:57.193Z,26.40
2023-01-29T16:35:24.691Z,27.60
2023-01-29T16:37:52.196Z,24.15
2023-01-29T16:40:32.653Z,27.73
2023-01-29T16:43:18.325Z,28.58
2023-01-29T16:46:03.608Z,24.85
2023-01-29T16:48:35.360Z,25.83
2023-01-29T16:51:07.419Z,28.27
2023-01-29T16:53:36.411Z,26.17
2023-01-29T16:56:05.972Z,24.77
2023-01-29T16:58:33.575Z,25.95
2023-01-29T17:01:01.118Z,26.75
2023-01-29T17:03:29.309Z,27.58
2023-01-29T17:05:56.877Z,29.33
2023-01-29T17:08:26.365Z,26.80
2023-01-29T17:10:54.000Z,29.77
2023-01-29T17:13:31.449Z,31.42
2023-01-29T17:16:05.841Z,31.80
2023-01-29T17:18:33.298Z,26.40
2023-01-29T17:21:00.577Z,28.55
2023-01-29T17:23:28.138Z,30.15
2023-01-29T17:25:55.651Z,28.52
2023-01-29T17:28:22.948Z,29.02
2023-01-29T17:31:05.265Z,29.30
2023-01-29T17:33:34.022Z,27.48
2023-01-29T17:36:01.813Z,29.67
2023-01-29T17:38:29.549Z,32.28
2023-01-29T17:41:00.063Z,28.60
2023-01-29T17:43:27.605Z,30.17
2023-01-29T17:45:55.155Z,28.33
2023-01-29T17:48:24.018Z,32.58
2023-01-29T17:50:53.816Z,30.08
2023-01-29T17:53:23.667Z,27.77
2023-01-29T17:55:53.130Z,31.40
2023-01-29T17:58:23.090Z,31.60
2023-01-29T18:00:50.903Z,30.20
2023-01-29T18:03:18.488Z,32.35
2023-01-29T18:05:46.609Z,30.73
2023-01-29T18:08:19.028Z,31.17
2023-01-29T18:10:46.871Z,29.25
2023-01-29T18:13:14.851Z,34.60
2023-01-29T18:15:42.654Z,31.80
2023-01-29T18:18:14.536Z,30.30
2023-01-29T18:20:42.457Z,31.55
2023-01-29T18:23:09.985Z,27.90
2023-01-29T18:25:37.887Z,32.15
2023-01-29T18:28:07.472Z,33.08
2023-01-29T18:30:34.933Z,33.30
2023-01-29T18:33:02.357Z,29.08
2023-01-29T18:35:30.504Z,29.23
2023-01-29T18:37:58.178Z,33.60
2023-01-29T18:40:30.020Z,33.72
2023-01-29T18:42:59.829Z,31.35
2023-01-29T18:45:28.342Z,29.60
2023-01-29T18:47:56.143Z,31.35
2023-01-29T18:50:25.246Z,30.63
2023-01-29T18:52:53.830Z,30.70
2023-01-29T18:55:21.678Z,29.17
2023-01-29T18:58:28.202Z,31.42
2023-01-29T19:00:36.725Z,29.65
2023-01-29T19:03:04.148Z,32.72
2023-01-29T19:05:34.040Z,32.72
2023-01-29T19:08:01.955Z,32.10
2023-01-29T19:10:29.363Z,28.80
2023-01-29T19:12:56.735Z,31.63
2023-01-29T19:15:24.149Z,29.90
2023-01-29T19:17:51.946Z,29.35
2023-01-29T19:20:19.855Z,29.58
2023-01-29T19:22:47.370Z,27.55
2023-01-29T19:25:14.838Z,28.48
2023-01-29T19:27:42.367Z,30.92
2023-01-29T19:30:10.851Z,30.15
2023-01-29T19:32:38.299Z,32.50
2023-01-29T19:35:12.585Z,31.83
2023-01-29T19:37:40.132Z,30.63
2023-01-29T19:40:08.313Z,30.85
2023-01-29T19:42:37.559Z,30.65
2023-01-29T19:45:05.696Z,28.27
2023-01-29T19:47:33.790Z,29.00
2023-01-29T19:50:01.328Z,28.50
2023-01-29T19:52:51.099Z,29.63
2023-01-29T19:55:20.348Z,28.35
2023-01-29T19:57:48.380Z,29.15
2023-01-29T20:00:18.093Z,30.60
2023-01-29T20:05:17.659Z,30.55
2023-01-29T20:07:45.677Z,29.67
2023-01-29T20:10:17.619Z,30.10
2023-01-29T20:12:46.139Z,31.15
2023-01-29T20:15:14.501Z,31.98
2023-01-29T20:17:45.971Z,29.95
2023-01-29T20:20:14.047Z,31.63
2023-01-29T20:22:44.770Z,30.88
2023-01-29T20:25:13.806Z,34.80
2023-01-29T20:27:41.855Z,33.28
2023-01-29T20:30:10.119Z,32.97
2023-01-29T20:32:38.868Z,29.63
2023-01-29T20:35:07.773Z,31.83
2023-01-29T20:37:35.109Z,29.75
2023-01-29T20:40:02.463Z,28.83
2023-01-29T20:42:29.722Z,31.73
2023-01-29T20:44:57.255Z,32.63
2023-01-29T20:47:24.567Z,33.08
2023-01-29T20:49:55.575Z,30.20
2023-01-29T20:52:22.922Z,35.17
2023-01-29T20:54:50.365Z,32.50
2023-01-29T20:57:17.747Z,30.70
2023-01-29T20:59:45.291Z,30.10
2023-01-29T21:02:14.175Z,32.17
2023-01-29T21:04:44.087Z,37.08
2023-01-29T21:07:11.806Z,29.88
2023-01-29T21:09:39.227Z,35.20
2023-01-29T21:12:07.698Z,31.77
2023-01-29T21:14:35.298Z,30.10
2023-01-29T21:17:03.125Z,31.33
2023-01-29T21:19:46.804Z,30.95
2023-01-29T21:22:17.491Z,32.38
2023-01-29T21:24:44.878Z,33.50
2023-01-29T21:27:12.149Z,34.75
2023-01-29T21:29:39.526Z,32.38
2023-01-29T21:32:07.040Z,34.17
2023-01-29T21:34:34.374Z,34.15
2023-01-29T21:37:01.757Z,33.53
2023-01-29T21:39:29.164Z,30.45
2023-01-29T21:42:25.491Z,34.13
2023-01-29T21:44:52.829Z,32.15
2023-01-29T21:47:22.186Z,33.10
2023-01-29T21:49:49.795Z,33.60
2023-01-29T21:52:17.177Z,30.65
2023-01-29T21:54:48.953Z,33.03
2023-01-29T21:57:17.076Z,30.73
2023-01-29T21:59:51.383Z,31.10
2023-01-29T22:02:20.917Z,31.90
2023-01-29T22:04:48.297Z,29.70
2023-01-29T22:07:15.547Z,33.53
2023-01-29T22:09:43.012Z,33.00
2023-01-29T22:12:10.896Z,34.35
2023-01-29T22:14:38.171Z,31.58
2023-01-29T22:17:06.081Z,32.85
2023-01-29T22:19:33.831Z,32.55
2023-01-29T22:22:01.203Z,30.83
2023-01-29T22:24:28.502Z,30.23
2023-01-29T22:26:55.861Z,30.67
2023-01-29T22:29:23.413Z,30.23
2023-01-29T22:31:50.699Z,30.83
2023-01-29T22:34:18.052Z,34.83
2023-01-29T22:36:45.332Z,30.10
2023-01-29T22:39:12.793Z,30.42
2023-01-29T22:41:40.248Z,31.75
2023-01-29T22:44:07.547Z,33.75
2023-01-29T22:46:35.043Z,30.67
2023-01-29T22:49:02.462Z,30.75
2023-01-29T22:51:29.810Z,29.02
2023-01-29T22:53:57.857Z,32.95
2023-01-29T22:56:26.301Z,31.13
2023-01-29T22:58:54.681Z,29.48
2023-01-29T23:01:23.330Z,29.77
2023-01-29T23:03:50.803Z,30.80
2023-01-29T23:06:18.525Z,29.05
2023-01-29T23:08:45.874Z,29.67
2023-01-29T23:11:15.263Z,29.10
2023-01-29T23:13:47.228Z,30.10
2023-01-29T23:16:15.327Z,28.23
2023-01-29T23:18:43.073Z,29.10
2023-01-29T23:21:10.834Z,30.15
2023-01-29T23:23:38.633Z,26.58
2023-01-29T23:26:25.949Z,26.30
2023-01-29T23:28:53.498Z,29.92
2023-01-29T23:31:20.961Z,30.63
2023-01-29T23:33:48.660Z,29.02
2023-01-29T23:36:16.156Z,33.88
2023-01-29T23:38:43.717Z,29.35
2023-01-29T23:41:10.977Z,29.63
2023-01-29T23:43:38.270Z,30.85
2023-01-29T23:46:05.693Z,28.70
2023-01-29T23:48:32.963Z,28.63
2023-01-29T23:51:00.279Z,28.48
2023-01-29T23:53:27.578Z,27.27
2023-01-29T23:55:57.834Z,30.92
2023-01-29T23:58:25.155Z,29.30
